Bei Facebook empfehlenBei Twitter postenGoogle plusPinterest

Das Wetter im Erzgebirge am 05.04.2017

Wetter und Klima am 05.04.2017 Holzhau im Erzgebirge (630m ü.NN)
Letzte gemessene Temperatur und Uhrzeit der Messung23:45:00 Uhr3.60 °C
Temperatur (Maximum / Höchstwert) und Uhrzeit der Messung14:30:00 Uhr10.10 °C
Temperatur (Minimum / Tiefstwert) und Uhrzeit der Messung01:15:001.40 °C
Errechneter Absolutwert der Temperaturschwankungen zwischen Tmin und Tmax des Tages8.70 K
Errechnete Tagesmitteltemperatur5.28542 °C
Gesamt - Niederschlag des Tages (in flüssiger Form)1.55 Liter / m²
Luftdruck (Maximum / Höchstwert) und Zeitpunkt der Messung01:30:00 Uhr1018.40 hPa
Luftdruck (Minimum / Tiefstwert) und Zeitpunkt der Messung23:30:00 Uhr1014.70 hPa
Errechneter Absolutwert der Luftdruckschwankungen des Tages3.70 hPa
Höchste gemessene Windgeschwindigkeit und Uhrzeit der Messung11:45:00 Uhr9.36 km/h
Errechnete Windhäufigkeit in Relation zu den Messwerten des Tages17.70833 %
Niedrigste Windkühle (Windchill) und Zeitpunkt der Messung01:15:00 Uhr1.40 °C
Taupunkt (Maximum / Höchstwert) und Uhrzeit der Messung14:15:00 Uhr6.70 °C
Taupunkt (Minimum / Tiefstwert) und Uhrzeit der Messung01:15:000.40 °C
Anzahl der automatisch eingelesenen Messwerte 96

Detaillierte Wetter- und Klima- Messwerte für den 05.04.2017 in Holzhau im Erzgebirge (630m ü.NN)
ZeitTemperaturLuftdruckRel. LuftfeuchteWindWindrichtungWindchillTaupunktNiederschlag l/m²
23:45:003.60 °C1014.80 hPa90.00 %7.20 km/hNW1.70 °C2.10 °C1.55
23:30:003.80 °C1014.70 hPa91.00 %2.50 °C1.55
23:15:003.80 °C1015.00 hPa92.00 %5.04 km/hWNW2.70 °C2.60 °C1.55
23:00:003.80 °C1014.90 hPa92.00 %2.60 °C1.55
22:45:003.80 °C1014.90 hPa91.00 %2.50 °C1.55
22:30:003.80 °C1014.80 hPa91.00 %2.50 °C1.55
22:15:003.90 °C1015.00 hPa92.00 %2.70 °C1.55
22:00:004.10 °C1015.30 hPa92.00 %2.90 °C1.55
21:45:004.30 °C1015.40 hPa92.00 %3.10 °C1.55
21:30:004.40 °C1015.20 hPa92.00 %3.20 °C1.55
21:15:004.40 °C1015.10 hPa91.00 %3.10 °C1.03
21:00:004.40 °C1015.30 hPa91.00 %3.10 °C1.03
20:45:004.50 °C1015.40 hPa90.00 %3.00 °C1.03
20:30:005.00 °C1015.30 hPa87.00 %3.00 °C0.51
20:15:005.90 °C1015.10 hPa86.00 %3.70 °C 
20:00:006.70 °C1014.90 hPa85.00 %4.40 °C 
19:45:006.80 °C1014.80 hPa84.00 %4.30 °C 
19:30:006.90 °C1014.70 hPa84.00 %4.40 °C 
19:15:007.10 °C1014.80 hPa84.00 %4.60 °C 
19:00:007.20 °C1014.80 hPa83.00 %4.50 °C 
18:45:007.40 °C1014.70 hPa83.00 %4.70 °C 
18:30:007.60 °C1014.70 hPa83.00 %4.90 °C 
18:15:007.80 °C1014.80 hPa83.00 %5.10 °C 
18:00:007.90 °C1014.70 hPa82.00 %5.04 km/hW7.40 °C5.00 °C 
17:45:008.10 °C1014.70 hPa82.00 %5.20 °C 
17:30:008.30 °C1014.70 hPa80.00 %5.10 °C 
17:15:008.90 °C1014.80 hPa79.00 %3.24 km/hNNW8.90 °C5.50 °C 
17:00:009.30 °C1014.80 hPa78.00 %2.88 km/hW9.30 °C5.70 °C 
16:45:009.50 °C1015.00 hPa79.00 %6.00 °C 
16:30:009.20 °C1015.00 hPa80.00 %5.90 °C 
16:15:008.90 °C1015.50 hPa81.00 %5.80 °C 
16:00:008.90 °C1015.40 hPa79.00 %5.50 °C 
15:45:009.60 °C1015.50 hPa76.00 %1.08 km/hNW9.60 °C5.60 °C 
15:30:009.50 °C1015.90 hPa78.00 %5.90 °C 
15:15:009.60 °C1015.90 hPa78.00 %6.00 °C 
15:00:009.80 °C1016.00 hPa79.00 %6.30 °C 
14:45:009.40 °C1015.90 hPa79.00 %1.80 km/hN9.40 °C5.90 °C 
14:30:0010.10 °C1016.00 hPa79.00 %3.24 km/hNNW10.10 °C6.60 °C 
14:15:009.60 °C1016.00 hPa82.00 %6.70 °C 
14:00:008.80 °C1016.10 hPa84.00 %2.16 km/hNNW8.80 °C6.20 °C 
13:45:008.80 °C1016.20 hPa84.00 %6.20 °C 
13:30:008.40 °C1016.20 hPa84.00 %5.90 °C 
13:15:008.40 °C1016.30 hPa85.00 %6.00 °C 
13:00:008.20 °C1016.50 hPa85.00 %1.80 km/hNW8.20 °C5.80 °C 
12:45:008.10 °C1016.60 hPa85.00 %5.70 °C 
12:30:007.80 °C1016.90 hPa85.00 %5.40 °C 
12:15:007.90 °C1017.00 hPa85.00 %5.50 °C 
12:00:008.00 °C1016.80 hPa86.00 %5.80 °C 
11:45:007.40 °C1016.90 hPa88.00 %9.36 km/hWNW5.70 °C5.50 °C 
11:30:006.90 °C1016.90 hPa89.00 %7.56 km/hWNW5.50 °C5.20 °C 
11:15:006.50 °C1016.90 hPa89.00 %6.48 km/hN5.30 °C4.80 °C 
11:00:006.40 °C1017.00 hPa89.00 %6.12 km/hW5.30 °C4.70 °C 
10:45:006.30 °C1017.20 hPa89.00 %4.60 °C 
10:30:006.30 °C1017.10 hPa89.00 %4.60 °C 
10:15:006.30 °C1017.20 hPa90.00 %4.80 °C 
10:00:006.00 °C1017.10 hPa91.00 %4.60 °C 
09:45:005.60 °C1017.00 hPa93.00 %4.60 °C 
09:30:004.90 °C1017.30 hPa93.00 %3.90 °C 
09:15:004.30 °C1017.30 hPa94.00 %3.40 °C 
09:00:004.00 °C1017.10 hPa94.00 %3.10 °C 
08:45:003.80 °C1017.20 hPa94.00 %2.90 °C 
08:30:003.60 °C1017.20 hPa94.00 %2.70 °C 
08:15:003.40 °C1017.10 hPa95.00 %2.70 °C 
08:00:003.20 °C1016.90 hPa95.00 %3.60 km/hNW3.20 °C2.50 °C 
07:45:003.10 °C1017.00 hPa95.00 %0.36 km/hN3.10 °C2.40 °C 
07:30:003.10 °C1017.00 hPa95.00 %2.40 °C 
07:15:002.90 °C1017.20 hPa94.00 %2.00 °C 
07:00:003.10 °C1017.20 hPa95.00 %2.52 km/hNNW3.10 °C2.40 °C 
06:45:003.00 °C1017.10 hPa95.00 %2.30 °C 
06:30:003.10 °C1017.20 hPa95.00 %2.40 °C 
06:15:003.00 °C1017.20 hPa95.00 %2.30 °C 
06:00:003.00 °C1017.20 hPa95.00 %2.30 °C 
05:45:003.00 °C1017.30 hPa95.00 %2.30 °C 
05:30:003.00 °C1017.50 hPa95.00 %2.30 °C 
05:15:003.00 °C1017.40 hPa95.00 %2.30 °C 
05:00:003.00 °C1017.50 hPa95.00 %2.30 °C 
04:45:003.00 °C1017.40 hPa95.00 %2.30 °C 
04:30:003.00 °C1017.10 hPa95.00 %2.30 °C 
04:15:002.90 °C1017.10 hPa95.00 %2.20 °C 
04:00:002.90 °C1016.90 hPa95.00 %2.20 °C 
03:45:002.80 °C1016.80 hPa94.00 %1.90 °C 
03:30:002.60 °C1016.90 hPa94.00 %1.70 °C 
03:15:002.40 °C1017.00 hPa94.00 %1.50 °C 
03:00:002.30 °C1017.50 hPa94.00 %1.40 °C 
02:45:002.20 °C1017.50 hPa94.00 %1.30 °C 
02:30:002.10 °C1017.60 hPa94.00 %1.20 °C 
02:15:002.10 °C1017.90 hPa94.00 %1.20 °C 
02:00:002.10 °C1018.10 hPa94.00 %1.20 °C 
01:45:001.90 °C1018.10 hPa94.00 %1.00 °C 
01:30:001.50 °C1018.40 hPa93.00 %0.50 °C 
01:15:001.40 °C1018.40 hPa93.00 %0.40 °C 
01:00:001.40 °C1018.30 hPa93.00 %0.40 °C 
00:45:001.50 °C1018.30 hPa93.00 %0.50 °C 
00:30:001.80 °C1018.10 hPa93.00 %0.80 °C 
00:15:001.90 °C1018.40 hPa92.00 %0.70 °C 
00:00:002.40 °C1018.40 hPa92.00 %1.20 °C 

Permanenter Link zu dieser Seite: Wetter im Erzgebirge am 05.04.2017
Performance-Info: Die Erstellung der Seite / Statistik(en) / Tabelle(n) erforderte 5 Datenbankserver-Abfrage(n) und dauerte 102 Millisekunden. (Dieser Messwert ist von der Gesamt-Auslastung des Servers abhängig.)
Erzgebirge - Wetter | Erzgebirge - Wetter (Mobilgeräte) | Komplette Klimadatenbank